Historyczne dane pomiarowe

Dodano dane terminowe – wersja testowa.

Dane z okresu 1951-2019

Wersja bazy: 1.34 [2019-03-16, lista zmian], aktualizacja planowana na 2019-04-15

Dane meteo z obszaru Polski uzyskane na podstawie danych udostępnionych przez Instytut Meteorologii i Gospodarki Wodnej – Państwowy Instytut Badawczy.

 

Wybierz Datę:    

       

TemperaturaWilgotnośćWiatrCiśnienieOpadyŚniegCzas trwania zjawisk
 Stacja t tx tn tng RH VA  wxwx mslp ppp RRR   cm mm wxwxwxwxwxwxwx
1961-08-14 14.8 19.4 7.5 10.3 76.3- 6.3 2.0---- 0.0------------
1961-08-13 14.7 18.0 12.1 10.0 70.8- 5.3 3.0---- 0.0------------
1961-08-12 17.5 21.3 14.5 13.2 81.0- 8.0 1.3---- 0.0------------
1961-08-11 16.8 19.9 15.8 15.6 98.3- 6.0 1.0---- 14.5------------
1961-08-10 20.4 27.2 15.4 15.3 80.5- 7.3 3.3---- 0.0------------
1961-08-09 20.2 25.6 16.1 12.5 75.5- 6.0 1.7---- 11.3------------
1961-08-08 18.2 23.3 8.7 5.6 75.3- 4.0 1.3---- 0.0------------
1961-08-07 17.9 21.9 16.1 15.8 88.3- 7.3 1.0---- 4.7------------
1961-08-06 22.3 31.0 15.5 11.5 73.5- 3.0 3.0---- 12.0------------
1961-08-05 18.9 24.4 14.9 13.8 79.3- 3.3 3.0---- 0.0------------
1961-08-04 15.3 18.2 8.2 5.1 75.0- 7.7 3.0---- 0.1------------
1961-08-03 13.7 18.6 11.4 9.0 87.8- 4.3 2.0---- 0.0------------
1961-08-02 15.7 22.5 9.9 6.3 87.5- 4.7 0.0---- 1.8------------
1961-08-01 14.5 20.4 10.8 11.1 86.5- 4.7 4.7---- 0.0------------
1961-07-31 13.0 15.5 12.1 12.9 95.5- 8.0 5.0---- 43.9------------
1961-07-30 15.0 18.2 10.0 10.9 82.3- 6.7 3.7---- 0.7------------
1961-07-29 13.6 18.0 11.6 11.5 77.5- 5.3 2.7---- 0.0------------
1961-07-28 14.8 19.6 13.0 13.1 91.8- 7.7 2.7---- 7.2------------
1961-07-27 19.2 24.5 14.9 12.0 67.8- 7.0 3.0---- 0.9------------
1961-07-26 18.2 23.7 12.5 10.7 62.8- 8.0 3.0---- 0.0------------
1961-07-25 14.0 17.3 11.7 11.3 76.5- 7.7 2.7---- 0.0------------
1961-07-24 13.6 16.2 11.7 10.3 78.8- 8.0 2.0---- 0.0------------
1961-07-23 13.9 17.5 12.3 11.7 83.0- 6.3 2.0---- 0.0------------
1961-07-22 15.2 19.5 13.8 12.6 84.0- 6.3 6.7---- 0.3------------
1961-07-21 14.8 17.8 9.2 7.7 89.8- 7.3 4.0---- 6.4------------
1961-07-20 15.6 21.0 9.2 6.9 80.8- 7.3 1.7---- 0.2------------
1961-07-19 13.6 18.2 10.5 8.0 93.5- 8.0 0.3---- 9.8------------
1961-07-18 14.0 20.2 12.1 12.4 90.0- 7.3 2.7---- 4.7------------
1961-07-17 14.5 18.7 10.2 7.3 86.5- 6.0 1.3---- 8.7------------
1961-07-16 16.2 20.9 13.7 13.0 81.8- 7.3 0.3---- 3.8------------
1961-07-15 17.8 24.0 13.0 11.6 66.3- 6.7 3.0---- 5.4------------
1961-07-14 15.2 19.4 13.0 11.1 69.3- 7.0 6.0---- 2.0------------
1961-07-13 19.8 27.8 15.0 13.4 78.3- 6.7 3.0---- 6.4------------
1961-07-12 20.5 27.3 14.1 12.2 71.3- 5.3 1.7---- 0.0------------
1961-07-11 16.1 21.4 8.0 4.9 75.8- 7.3 3.0---- 1.6------------
1961-07-10 12.4 17.5 10.6 9.6 85.5- 5.0 2.7---- 2.3------------
1961-07-09 13.4 17.4 11.1 6.6 91.3- 7.7 2.3---- 5.3------------
1961-07-08 16.9 23.0 9.1 5.7 60.0- 7.3 1.7---- 0.0------------
1961-07-07 13.1 16.7 9.0 7.8 75.0- 7.0 2.7---- 0.0------------
1961-07-06 12.0 16.6 7.5 5.9 89.0- 7.7 4.3---- 3.7------------
1961-07-05 12.5 17.6 10.4 10.6 70.5- 7.0 6.0---- 0.0------------
1961-07-04 17.0 25.0 13.5 12.4 81.3- 7.3 3.0---- 2.8------------
1961-07-03 25.5 33.2 14.1 9.8 54.5- 2.7 2.3---- 0.0------------
1961-07-02 23.5 31.5 11.0 7.6 59.5- 0.0 1.0---- 0.0------------
1961-07-01 21.0 29.5 9.8 6.6 62.8- 1.3 1.3---- 0.0------------
1961-06-30 19.5 27.0 10.5 6.4 68.0- 0.0 0.7---- 0.0------------
1961-06-29 16.2 22.2 10.4 8.1 70.5- 1.0 2.3---- 0.0------------
1961-06-28 15.7 20.4 13.0 11.8 58.8- 6.0 4.3---- 0.0------------
1961-06-27 21.7 27.7 14.7 11.5 77.5- 3.7 2.3---- 0.0------------
1961-06-26 22.2 29.3 13.2 9.6 62.8- 2.0 1.0---- 0.0------------
1961-06-25 23.0 29.2 15.2 9.8 56.3- 1.3 2.7---- 0.0------------
1961-06-24 19.4 25.0 12.4 9.6 64.0- 7.0 3.0---- 0.0------------
1961-06-23 18.4 22.3 14.5 13.3 69.5- 2.0 5.7---- 0.0------------
1961-06-22 17.2 23.2 6.0 2.7 69.5- 0.7 2.3---- 2.6------------
1961-06-21 15.2 23.1 6.8 3.6 71.0- 4.0 2.0---- 0.5------------
1961-06-20 14.1 20.4 9.6 6.7 65.8- 0.3 2.0---- 0.0------------
1961-06-19 16.3 22.1 14.9 15.1 63.0- 2.7 3.0---- 0.0------------
1961-06-18 21.9 27.8 12.5 10.6 56.8- 2.0 3.0---- 0.2------------
1961-06-17 18.1 23.4 8.7 5.2 65.5- 1.3 2.7---- 0.0------------
1961-06-16 13.1 20.1 7.3 6.1 79.5- 3.3 3.0---- 0.0------------
383.7 ms

 

Źródłem pochodzenia danych jest Instytut Meteorologii i Gospodarki Wodnej – Państwowy Instytut Badawczy. Dane Instytutu Meteorologii i Gospodarki Wodnej – Państwowego Instytutu Badawczego zostały przetworzone.

Dane źródłowe można odnaleźć na stronie https://dane.imgw.pl